In Rescue
 
Open Full Screen Window  High Contrast Mode
Wind Gusting 00 knots
07
March 01, 2024 4:05 PM EST
Weather Information
Wind Direction
  150 °
Wind Speed
  07 kt (8 mph)
Wind Gust
  00 kt (0 mph)
Altimeter
30.23 in
Visibility
10 SM
Temperature
05° C
41° F
Dewpoint
-09° C
16° F
Humidity
36%
Sky Condition
Clear
VFR

METAR KONZ 012105Z AUTO 15007KT 10SM CLR 05/M09 A3023 RMK AO2 T00451094

FAA Disclaimer: The data displayed is for advisory purposes only and is not to be used for flight planning or operations.